Time;durP1;ratioP1;P1;durP2;ratioP2;P2;SDS_P1;SDS_P2;PMS_P1;PMS_P2;Temp;Humidity;BMP_temperature;BMP_pressure;BME280_temperature;BME280_humidity;BME280_pressure;Samples;Min_cycle;Max_cycle;Signal;HPM_P1;HPM_P2
2021/12/08 00:00:17;;;;;;;43.35;40.40;;;;;;;;;;5024503;28;20029;-74
2021/12/08 00:02:44;;;;;;;45.28;42.67;;;;;;;;;;5018610;28;20045;-75
2021/12/08 00:05:11;;;;;;;44.60;41.55;;;;;;;;;;5019865;28;20029;-74
2021/12/08 00:07:37;;;;;;;40.80;38.85;;;;;;;;;;5018278;28;20400;-83
2021/12/08 00:10:16;;;;;;;41.78;39.78;;;;;;;;;;5023793;28;20439;-75
2021/12/08 00:13:03;;;;;;;44.03;41.53;;;;;;;;;;5018626;28;20025;-74
2021/12/08 00:15:33;;;;;;;45.78;42.75;;;;;;;;;;5028570;28;20027;-75
2021/12/08 00:17:59;;;;;;;46.33;43.63;;;;;;;;;;5026344;28;20025;-75
2021/12/08 00:20:29;;;;;;;44.55;42.05;;;;;;;;;;5017216;28;20040;-74
2021/12/08 00:22:56;;;;;;;46.90;44.28;;;;;;;;;;5017931;28;20049;-75
2021/12/08 00:25:22;;;;;;;48.97;46.08;;;;;;;;;;5028446;28;20441;-75
2021/12/08 00:27:48;;;;;;;47.83;45.42;;;;;;;;;;5024338;28;20017;-74
2021/12/08 00:30:15;;;;;;;53.50;50.60;;;;;;;;;;5021794;28;20483;-74
2021/12/08 00:32:41;;;;;;;52.25;48.97;;;;;;;;;;5013338;28;20565;-74
2021/12/08 00:35:08;;;;;;;50.38;47.35;;;;;;;;;;5017049;28;20026;-73
2021/12/08 00:37:34;;;;;;;45.17;42.50;;;;;;;;;;5020089;28;20029;-74
2021/12/08 00:40:00;;;;;;;44.83;42.53;;;;;;;;;;5024626;28;20022;-74
2021/12/08 00:42:26;;;;;;;47.65;45.05;;;;;;;;;;5029152;28;20029;-73
2021/12/08 00:44:53;;;;;;;42.45;39.92;;;;;;;;;;5021423;28;20562;-74
2021/12/08 00:47:19;;;;;;;44.03;41.78;;;;;;;;;;5012939;28;20025;-74
2021/12/08 00:49:46;;;;;;;43.33;41.10;;;;;;;;;;5021624;28;20033;-73
2021/12/08 00:52:14;;;;;;;43.97;41.47;;;;;;;;;;5026184;28;20042;-74
2021/12/08 00:54:40;;;;;;;45.90;43.08;;;;;;;;;;5026024;28;20210;-74
2021/12/08 00:57:07;;;;;;;43.10;40.33;;;;;;;;;;5021778;28;20047;-75
2021/12/08 00:59:33;;;;;;;46.20;43.72;;;;;;;;;;5030930;28;20025;-74
2021/12/08 01:02:02;;;;;;;48.67;45.58;;;;;;;;;;5036295;28;20065;-74
2021/12/08 01:04:32;;;;;;;47.92;44.88;;;;;;;;;;5023114;28;20032;-74
2021/12/08 01:06:59;;;;;;;45.50;42.50;;;;;;;;;;5024542;28;20041;-74
2021/12/08 01:09:25;;;;;;;43.13;39.92;;;;;;;;;;5017670;28;20022;-74
2021/12/08 01:11:51;;;;;;;46.33;43.25;;;;;;;;;;5039750;28;20091;-74
2021/12/08 01:14:18;;;;;;;43.22;41.13;;;;;;;;;;5032456;28;20033;-74
2021/12/08 01:16:45;;;;;;;44.97;42.03;;;;;;;;;;5029543;28;20029;-74
2021/12/08 01:19:11;;;;;;;44.63;40.80;;;;;;;;;;5024418;28;20076;-75
2021/12/08 01:21:37;;;;;;;41.67;39.00;;;;;;;;;;5033280;28;20038;-75
2021/12/08 01:24:03;;;;;;;42.25;39.83;;;;;;;;;;5026105;28;20044;-75
2021/12/08 01:26:29;;;;;;;42.15;39.38;;;;;;;;;;5027130;28;20017;-74
2021/12/08 01:28:57;;;;;;;51.25;47.70;;;;;;;;;;5025796;28;20048;-75
2021/12/08 01:31:24;;;;;;;53.20;50.13;;;;;;;;;;5020798;28;20037;-75
2021/12/08 01:33:50;;;;;;;50.97;48.28;;;;;;;;;;5019140;28;20144;-74
2021/12/08 01:36:16;;;;;;;53.72;50.90;;;;;;;;;;5021503;28;20101;-75
2021/12/08 01:38:42;;;;;;;54.47;51.38;;;;;;;;;;5027844;28;20040;-75
2021/12/08 01:41:09;;;;;;;57.78;54.58;;;;;;;;;;5031462;28;20155;-75
2021/12/08 01:46:22;;;;;;;538.35;353.25;;;;;;;;;;5022380;28;20041;-75
2021/12/08 01:48:48;;;;;;;692.45;419.13;;;;;;;;;;5026117;28;20377;-75
2021/12/08 01:51:15;;;;;;;411.80;368.00;;;;;;;;;;5043458;28;20029;-75
2021/12/08 01:53:44;;;;;;;145.05;136.02;;;;;;;;;;5025720;28;20060;-75
2021/12/08 01:56:11;;;;;;;730.70;432.65;;;;;;;;;;5025554;28;20072;-75
2021/12/08 01:58:37;;;;;;;;;;;;;;;;;;5021396;28;19909;-75
2021/12/08 02:01:05;;;;;;;732.03;420.02;;;;;;;;;;5031268;28;20036;-75
2021/12/08 02:03:31;;;;;;;748.50;483.50;;;;;;;;;;5020042;28;20403;-76
2021/12/08 02:05:58;;;;;;;756.65;497.45;;;;;;;;;;5029426;28;19909;-76
2021/12/08 02:08:24;;;;;;;734.35;430.00;;;;;;;;;;5034000;28;20096;-75
2021/12/08 02:10:50;;;;;;;737.83;436.00;;;;;;;;;;5025752;28;20410;-76
2021/12/08 02:13:17;;;;;;;743.47;461.98;;;;;;;;;;5032703;28;20034;-76
2021/12/08 02:15:43;;;;;;;729.50;416.40;;;;;;;;;;5021516;28;20033;-75
2021/12/08 02:18:11;;;;;;;737.15;431.75;;;;;;;;;;5028339;28;20229;-76
2021/12/08 02:20:38;;;;;;;711.80;383.75;;;;;;;;;;5026074;28;20026;-75
2021/12/08 02:23:05;;;;;;;734.70;425.95;;;;;;;;;;5027083;28;20025;-75
2021/12/08 02:25:31;;;;;;;730.60;416.90;;;;;;;;;;5026506;28;20028;-75
2021/12/08 02:27:58;;;;;;;731.63;408.25;;;;;;;;;;5022864;28;20025;-75
2021/12/08 02:30:37;;;;;;;747.33;462.63;;;;;;;;;;5029870;28;20025;-76
2021/12/08 02:47:06;;;;;;;708.00;362.42;;;;;;;;;;5018729;28;20083;-76
2021/12/08 02:49:33;;;;;;;737.90;434.90;;;;;;;;;;5027605;28;20056;-75
2021/12/08 02:51:59;;;;;;;728.00;407.93;;;;;;;;;;5021454;28;20021;-77
2021/12/08 02:54:32;;;;;;;726.35;380.75;;;;;;;;;;5030399;28;20047;-75
2021/12/08 02:56:58;;;;;;;720.03;378.40;;;;;;;;;;5021053;28;20502;-75
2021/12/08 02:59:24;;;;;;;733.50;426.05;;;;;;;;;;5028411;28;20487;-75
2021/12/08 03:01:51;;;;;;;727.90;394.02;;;;;;;;;;5020790;28;20104;-75
2021/12/08 03:04:17;;;;;;;740.58;445.10;;;;;;;;;;5028906;28;20029;-76
2021/12/08 03:06:43;;;;;;;727.15;413.35;;;;;;;;;;5030891;28;20036;-75
2021/12/08 03:09:09;;;;;;;722.55;387.73;;;;;;;;;;5026822;28;20033;-75
2021/12/08 03:11:36;;;;;;;727.10;406.20;;;;;;;;;;5025502;28;20041;-76
2021/12/08 03:14:02;;;;;;;;;;;;;;;;;;5031970;28;20456;-76
2021/12/08 03:16:28;;;;;;;741.83;451.73;;;;;;;;;;5029893;28;19955;-74
2021/12/08 03:18:54;;;;;;;760.70;508.30;;;;;;;;;;5027850;28;20402;-76
2021/12/08 03:21:27;;;;;;;758.10;517.60;;;;;;;;;;5021388;28;20239;-76
2021/12/08 03:24:07;;;;;;;739.30;444.30;;;;;;;;;;5023536;28;20132;-76
2021/12/08 03:26:34;;;;;;;743.65;452.15;;;;;;;;;;5027924;28;20034;-75
2021/12/08 03:29:07;;;;;;;735.47;433.77;;;;;;;;;;5027139;28;20029;-76
2021/12/08 03:31:41;;;;;;;731.28;406.85;;;;;;;;;;5024310;28;20029;-77
2021/12/08 03:34:07;;;;;;;730.65;422.90;;;;;;;;;;5023517;28;20033;-75
2021/12/08 03:36:33;;;;;;;730.78;416.90;;;;;;;;;;5027984;28;20060;-77
2021/12/08 03:39:01;;;;;;;729.35;418.52;;;;;;;;;;5022072;28;20484;-75
2021/12/08 03:41:32;;;;;;;732.33;410.35;;;;;;;;;;5016127;28;20092;-75
2021/12/08 03:43:58;;;;;;;608.03;409.70;;;;;;;;;;5028210;28;20077;-77
2021/12/08 03:46:27;;;;;;;648.40;387.67;;;;;;;;;;5029765;28;20026;-75
2021/12/08 03:48:53;;;;;;;767.25;509.45;;;;;;;;;;5021340;28;20050;-75
2021/12/08 03:51:20;;;;;;;745.87;464.13;;;;;;;;;;5019578;28;20034;-76
2021/12/08 03:53:46;;;;;;;755.47;473.60;;;;;;;;;;5022806;28;20064;-76
2021/12/08 03:56:12;;;;;;;751.03;481.67;;;;;;;;;;5024164;28;20140;-79
2021/12/08 03:58:39;;;;;;;727.33;418.30;;;;;;;;;;5017814;28;20029;-75
2021/12/08 04:01:06;;;;;;;720.88;380.27;;;;;;;;;;5025094;28;20029;-76
2021/12/08 04:03:33;;;;;;;719.25;379.90;;;;;;;;;;5029429;28;20510;-76
2021/12/08 04:06:03;;;;;;;724.60;393.25;;;;;;;;;;5030750;28;20111;-74
2021/12/08 04:08:34;;;;;;;731.17;396.20;;;;;;;;;;5021957;28;20029;-76
2021/12/08 04:11:05;;;;;;;726.13;384.38;;;;;;;;;;5021228;28;20018;-76
2021/12/08 04:13:34;;;;;;;741.25;437.35;;;;;;;;;;5027150;28;20021;-76
2021/12/08 04:16:00;;;;;;;727.58;401.67;;;;;;;;;;5029194;28;20059;-77
2021/12/08 04:18:27;;;;;;;731.55;442.05;;;;;;;;;;5018521;28;20030;-77
2021/12/08 04:20:55;;;;;;;741.10;464.40;;;;;;;;;;5024547;28;20034;-75
2021/12/08 04:23:23;;;;;;;730.05;431.45;;;;;;;;;;5026950;28;20024;-75
2021/12/08 04:25:51;;;;;;;728.72;403.38;;;;;;;;;;5026078;28;20057;-76
2021/12/08 04:28:23;;;;;;;746.80;471.00;;;;;;;;;;5014722;28;20021;-76
2021/12/08 04:30:57;;;;;;;732.60;437.95;;;;;;;;;;5018814;28;20117;-75
2021/12/08 04:33:24;;;;;;;721.22;383.73;;;;;;;;;;5020152;28;20108;-75
2021/12/08 04:35:52;;;;;;;725.47;440.63;;;;;;;;;;5020380;28;20575;-76
2021/12/08 04:38:24;;;;;;;737.45;454.35;;;;;;;;;;5020566;28;19959;-75
2021/12/08 04:41:06;;;;;;;716.28;369.85;;;;;;;;;;5022710;28;20113;-75
2021/12/08 04:43:37;;;;;;;728.70;410.45;;;;;;;;;;5023353;28;20113;-80
2021/12/08 04:46:28;;;;;;;644.97;338.83;;;;;;;;;;5024793;28;20033;-75
2021/12/08 04:51:41;;;;;;;675.17;355.33;;;;;;;;;;5028790;28;20116;-75
2021/12/08 05:05:20;;;;;;;741.87;469.77;;;;;;;;;;5013868;28;20113;-76
2021/12/08 05:08:00;;;;;;;739.60;438.05;;;;;;;;;;5018414;28;20493;-75
2021/12/08 05:10:26;;;;;;;;;;;;;;;;;;5023164;28;20282;-76
2021/12/08 05:12:52;;;;;;;;;;;;;;;;;;5023011;28;20135;-77
2021/12/08 05:15:27;;;;;;;689.10;333.40;;;;;;;;;;5019415;28;19915;-76
2021/12/08 05:18:13;;;;;;;690.55;331.40;;;;;;;;;;5022617;28;20198;-79
2021/12/08 05:20:39;;;;;;;;;;;;;;;;;;5027176;28;19913;-76
2021/12/08 05:23:05;;;;;;;;;;;;;;;;;;5025988;28;19919;-76
2021/12/08 05:25:31;;;;;;;;;;;;;;;;;;5018595;28;19999;-76
2021/12/08 05:27:58;;;;;;;;;;;;;;;;;;5024219;28;20012;-78
2021/12/08 05:30:23;;;;;;;;;;;;;;;;;;5022651;28;19913;-76
2021/12/08 05:32:49;;;;;;;;;;;;;;;;;;5020950;28;25115;-79
2021/12/08 05:35:15;;;;;;;;;;;;;;;;;;5021650;28;20261;-78
2021/12/08 05:37:42;;;;;;;766.03;486.35;;;;;;;;;;5023934;28;20417;-77
2021/12/08 05:40:10;;;;;;;745.35;494.85;;;;;;;;;;5027118;28;20035;-76
2021/12/08 05:42:36;;;;;;;736.45;413.90;;;;;;;;;;5045133;28;20036;-76
2021/12/08 05:45:10;;;;;;;746.70;422.40;;;;;;;;;;5029189;28;20025;-76
2021/12/08 05:47:36;;;;;;;367.08;328.98;;;;;;;;;;5017359;28;20041;-76
2021/12/08 05:50:02;;;;;;;339.90;311.27;;;;;;;;;;5027526;28;20026;-75
2021/12/08 05:52:29;;;;;;;282.83;262.67;;;;;;;;;;5022968;28;20030;-75
2021/12/08 05:54:55;;;;;;;200.30;186.77;;;;;;;;;;5027655;28;20034;-75
2021/12/08 05:57:25;;;;;;;83.25;78.63;;;;;;;;;;5020269;28;20025;-75
2021/12/08 05:59:52;;;;;;;250.65;228.77;;;;;;;;;;5022654;28;20025;-75
2021/12/08 06:02:21;;;;;;;211.73;194.90;;;;;;;;;;5025646;28;20060;-74
2021/12/08 06:04:48;;;;;;;93.82;88.90;;;;;;;;;;5031426;28;20399;-75
2021/12/08 06:07:15;;;;;;;87.40;82.05;;;;;;;;;;5027659;28;20028;-76
2021/12/08 06:09:41;;;;;;;84.68;80.38;;;;;;;;;;5023239;28;20049;-76
2021/12/08 06:12:08;;;;;;;88.32;83.65;;;;;;;;;;5023619;28;20025;-75
2021/12/08 06:14:35;;;;;;;90.32;85.28;;;;;;;;;;5038213;28;20127;-74
2021/12/08 06:17:07;;;;;;;82.68;77.95;;;;;;;;;;5021430;28;20033;-74
2021/12/08 06:19:33;;;;;;;78.47;74.28;;;;;;;;;;5017444;28;20033;-75
2021/12/08 06:21:59;;;;;;;502.13;318.80;;;;;;;;;;5029660;28;20029;-75
2021/12/08 06:24:26;;;;;;;746.35;451.10;;;;;;;;;;5018796;28;20025;-76
2021/12/08 06:26:52;;;;;;;;;;;;;;;;;;5016999;28;20404;-76
2021/12/08 06:29:18;;;;;;;;;;;;;;;;;;5020812;28;20064;-77
2021/12/08 06:31:44;;;;;;;;;;;;;;;;;;5015198;28;19909;-75
2021/12/08 06:34:10;;;;;;;;;;;;;;;;;;5022536;28;19952;-77
2021/12/08 06:36:38;;;;;;;144.50;133.30;;;;;;;;;;5021891;28;19936;-76
2021/12/08 06:39:10;;;;;;;172.00;154.35;;;;;;;;;;5021143;28;20376;-76
2021/12/08 06:41:38;;;;;;;133.00;121.30;;;;;;;;;;5018519;28;19964;-77
2021/12/08 06:44:07;;;;;;;173.20;155.15;;;;;;;;;;5032684;28;19913;-77
2021/12/08 06:46:33;;;;;;;809.00;621.80;;;;;;;;;;5023172;28;28567;-75
2021/12/08 06:49:01;;;;;;;702.83;400.13;;;;;;;;;;5032346;28;20239;-75
2021/12/08 06:51:29;;;;;;;693.38;372.27;;;;;;;;;;5023149;28;20027;-76
2021/12/08 06:53:58;;;;;;;662.97;355.20;;;;;;;;;;5023298;28;20544;-75
2021/12/08 06:56:33;;;;;;;682.80;358.50;;;;;;;;;;5028554;28;20033;-75
2021/12/08 06:58:59;;;;;;;;;;;;;;;;;;5018635;28;19909;-76
2021/12/08 07:01:42;;;;;;;750.70;505.00;;;;;;;;;;5019415;28;19909;-75
2021/12/08 07:07:00;;;;;;;701.50;369.42;;;;;;;;;;5026483;28;20128;-74
2021/12/08 07:09:29;;;;;;;708.45;359.27;;;;;;;;;;5020046;28;20109;-77
2021/12/08 07:11:56;;;;;;;732.50;436.70;;;;;;;;;;5020666;28;20438;-75
2021/12/08 07:14:23;;;;;;;734.28;416.70;;;;;;;;;;5020045;28;20033;-74
2021/12/08 07:16:52;;;;;;;707.35;354.35;;;;;;;;;;5025985;28;20025;-75
2021/12/08 07:19:28;;;;;;;717.30;391.38;;;;;;;;;;5037980;28;20121;-74
2021/12/08 07:21:56;;;;;;;639.55;352.90;;;;;;;;;;5023141;28;20029;-74
2021/12/08 07:24:31;;;;;;;673.15;380.48;;;;;;;;;;5027834;28;20401;-75
2021/12/08 07:26:59;;;;;;;459.80;345.27;;;;;;;;;;5012652;28;20247;-77
2021/12/08 07:29:27;;;;;;;626.42;396.02;;;;;;;;;;5011146;28;20022;-74
2021/12/08 07:31:56;;;;;;;692.95;383.33;;;;;;;;;;5017191;28;20046;-75
2021/12/08 07:34:23;;;;;;;402.10;319.25;;;;;;;;;;5016854;28;20026;-75
2021/12/08 07:36:54;;;;;;;616.20;335.52;;;;;;;;;;5020677;28;20035;-76
2021/12/08 07:39:22;;;;;;;530.17;318.40;;;;;;;;;;5034104;28;20075;-75
2021/12/08 07:41:52;;;;;;;691.47;345.48;;;;;;;;;;5013758;28;20034;-75
2021/12/08 07:44:19;;;;;;;558.05;318.45;;;;;;;;;;5020011;28;20022;-76
2021/12/08 07:46:56;;;;;;;595.25;335.13;;;;;;;;;;5014632;28;20060;-76
2021/12/08 07:49:28;;;;;;;502.23;315.17;;;;;;;;;;5007162;28;20022;-76
2021/12/08 07:51:54;;;;;;;;;;;;;;;;;;5010612;28;20399;-75
2021/12/08 07:54:20;;;;;;;499.88;307.20;;;;;;;;;;5008565;28;19948;-75
2021/12/08 07:56:47;;;;;;;482.77;322.92;;;;;;;;;;5009045;28;20083;-75
2021/12/08 07:59:16;;;;;;;680.85;384.67;;;;;;;;;;5004685;28;20044;-76
2021/12/08 08:01:45;;;;;;;641.97;368.40;;;;;;;;;;5009277;28;20413;-75
2021/12/08 08:04:12;;;;;;;611.70;354.38;;;;;;;;;;5008348;28;20030;-75
2021/12/08 08:06:43;;;;;;;478.20;345.50;;;;;;;;;;5022785;28;20026;-76
2021/12/08 08:09:13;;;;;;;620.88;352.63;;;;;;;;;;5003565;28;20105;-76
2021/12/08 08:11:42;;;;;;;450.70;319.65;;;;;;;;;;5007239;28;20092;-76
2021/12/08 08:14:10;;;;;;;599.40;343.50;;;;;;;;;;4995004;28;20412;-75
2021/12/08 08:16:37;;;;;;;486.08;356.15;;;;;;;;;;5008707;28;20033;-75
2021/12/08 08:19:10;;;;;;;212.88;200.40;;;;;;;;;;5007750;28;20022;-75
2021/12/08 08:21:38;;;;;;;256.38;239.40;;;;;;;;;;5009195;28;20033;-76
2021/12/08 08:24:05;;;;;;;91.97;87.65;;;;;;;;;;5025189;28;20032;-76
2021/12/08 08:26:32;;;;;;;302.13;273.40;;;;;;;;;;5006695;28;20503;-75
2021/12/08 08:28:59;;;;;;;130.20;123.40;;;;;;;;;;4994258;28;20026;-75
2021/12/08 08:31:28;;;;;;;287.23;263.80;;;;;;;;;;5002336;28;20080;-75
2021/12/08 08:33:55;;;;;;;307.02;282.63;;;;;;;;;;5018331;28;20045;-74
2021/12/08 08:36:23;;;;;;;279.35;256.63;;;;;;;;;;5009546;28;20093;-75
2021/12/08 08:38:52;;;;;;;373.13;307.13;;;;;;;;;;5007448;28;20091;-74
2021/12/08 08:41:21;;;;;;;414.27;326.40;;;;;;;;;;5008892;28;20369;-75
2021/12/08 08:43:47;;;;;;;427.30;324.30;;;;;;;;;;5009819;28;20512;-74
2021/12/08 08:46:18;;;;;;;424.92;317.27;;;;;;;;;;5024382;28;20032;-74
2021/12/08 08:48:49;;;;;;;342.50;306.48;;;;;;;;;;5000415;28;20038;-75
2021/12/08 08:51:15;;;;;;;343.42;310.83;;;;;;;;;;5006831;28;20034;-75
2021/12/08 08:53:43;;;;;;;307.33;280.73;;;;;;;;;;5008792;28;20022;-75
2021/12/08 08:56:12;;;;;;;304.75;282.98;;;;;;;;;;5008870;28;20199;-74
2021/12/08 08:58:39;;;;;;;290.55;266.17;;;;;;;;;;5005793;28;20073;-74
2021/12/08 09:01:08;;;;;;;365.02;326.95;;;;;;;;;;5003774;28;20042;-75
2021/12/08 09:03:35;;;;;;;288.35;265.13;;;;;;;;;;5003901;28;20355;-74
2021/12/08 09:06:06;;;;;;;342.27;308.58;;;;;;;;;;5007988;28;20480;-74
2021/12/08 09:08:35;;;;;;;382.77;323.77;;;;;;;;;;4991876;28;20073;-75
2021/12/08 09:11:06;;;;;;;235.75;219.25;;;;;;;;;;5003487;28;20104;-73
2021/12/08 09:13:35;;;;;;;407.90;319.80;;;;;;;;;;4998272;28;20045;-74
2021/12/08 09:16:04;;;;;;;505.58;328.48;;;;;;;;;;5012732;28;20022;-75
2021/12/08 09:18:38;;;;;;;339.42;303.95;;;;;;;;;;5010254;28;20045;-74
2021/12/08 09:21:15;;;;;;;368.35;329.75;;;;;;;;;;5012493;28;20033;-74
2021/12/08 09:23:45;;;;;;;381.67;340.70;;;;;;;;;;5004750;28;20040;-74
2021/12/08 09:26:14;;;;;;;138.85;131.45;;;;;;;;;;5004109;28;20049;-74
2021/12/08 09:28:43;;;;;;;294.52;269.13;;;;;;;;;;5014782;28;20105;-74
2021/12/08 09:31:19;;;;;;;285.55;260.88;;;;;;;;;;5027038;28;20120;-75
2021/12/08 09:33:53;;;;;;;297.30;267.95;;;;;;;;;;5005297;28;20042;-74
2021/12/08 09:36:21;;;;;;;132.98;125.20;;;;;;;;;;5010865;28;20026;-75
2021/12/08 09:38:54;;;;;;;259.33;239.88;;;;;;;;;;5002757;28;20038;-75
2021/12/08 09:41:26;;;;;;;361.33;325.98;;;;;;;;;;5024724;28;20030;-74
2021/12/08 09:43:55;;;;;;;141.63;133.23;;;;;;;;;;5002951;28;20060;-75
2021/12/08 09:46:24;;;;;;;78.55;74.43;;;;;;;;;;5012587;28;20057;-74
2021/12/08 09:48:51;;;;;;;77.75;73.28;;;;;;;;;;5008805;28;20022;-75
2021/12/08 09:51:20;;;;;;;222.25;207.30;;;;;;;;;;5026546;28;20072;-74
2021/12/08 09:53:47;;;;;;;80.03;75.53;;;;;;;;;;5011068;28;20034;-74
2021/12/08 09:56:15;;;;;;;136.57;128.75;;;;;;;;;;5009011;28;20176;-74
2021/12/08 09:58:41;;;;;;;98.22;93.05;;;;;;;;;;4999260;28;20033;-74
2021/12/08 10:01:09;;;;;;;175.55;163.98;;;;;;;;;;5012508;28;20030;-74
2021/12/08 10:03:36;;;;;;;287.63;267.95;;;;;;;;;;5026084;28;20455;-74
2021/12/08 10:06:02;;;;;;;91.80;86.97;;;;;;;;;;5027464;28;20557;-74
2021/12/08 10:08:29;;;;;;;262.48;243.52;;;;;;;;;;5009090;28;20029;-74
2021/12/08 10:10:55;;;;;;;218.45;205.38;;;;;;;;;;5027262;28;20041;-74
2021/12/08 10:13:22;;;;;;;181.77;170.65;;;;;;;;;;5014507;28;20082;-74
2021/12/08 10:15:48;;;;;;;127.80;120.80;;;;;;;;;;5027284;28;20061;-75
2021/12/08 10:18:14;;;;;;;210.82;198.82;;;;;;;;;;5023871;28;20030;-74
2021/12/08 10:20:42;;;;;;;282.42;264.67;;;;;;;;;;5026924;28;20057;-74
2021/12/08 10:23:15;;;;;;;312.08;290.23;;;;;;;;;;5012307;28;20092;-75
2021/12/08 10:25:56;;;;;;;339.75;313.30;;;;;;;;;;5011688;28;20025;-74
2021/12/08 10:28:27;;;;;;;290.13;270.30;;;;;;;;;;4999764;28;20022;-75
2021/12/08 10:30:56;;;;;;;294.83;275.50;;;;;;;;;;5027333;28;20121;-74
2021/12/08 10:34:01;;;;;;;176.63;167.63;;;;;;;;;;5007860;28;20046;-74
2021/12/08 10:36:45;;;;;;;232.73;219.20;;;;;;;;;;5003500;28;20033;-74
2021/12/08 10:39:30;;;;;;;251.85;235.93;;;;;;;;;;5022730;28;20021;-73
2021/12/08 10:42:04;;;;;;;320.48;296.45;;;;;;;;;;5005460;28;20042;-74
2021/12/08 10:44:40;;;;;;;177.18;168.55;;;;;;;;;;5007583;28;20022;-74
2021/12/08 10:47:07;;;;;;;323.58;302.52;;;;;;;;;;5004286;28;20508;-74
2021/12/08 10:54:45;;;;;;;304.23;285.92;;;;;;;;;;5007606;28;20408;-74
2021/12/08 10:57:31;;;;;;;226.55;215.02;;;;;;;;;;5006057;28;20446;-74
2021/12/08 11:00:00;;;;;;;284.73;267.27;;;;;;;;;;5010782;28;20026;-74
2021/12/08 11:02:49;;;;;;;137.05;130.57;;;;;;;;;;5009385;28;20088;-74
2021/12/08 11:05:24;;;;;;;357.40;327.52;;;;;;;;;;5001675;28;20040;-74
2021/12/08 11:08:09;;;;;;;360.85;331.52;;;;;;;;;;5006746;28;20014;-74
2021/12/08 11:10:38;;;;;;;312.58;291.00;;;;;;;;;;5003479;28;20030;-74
2021/12/08 11:13:04;;;;;;;359.40;331.50;;;;;;;;;;5023308;28;20423;-73
2021/12/08 11:15:31;;;;;;;279.08;262.00;;;;;;;;;;5005582;28;20033;-75
2021/12/08 11:18:07;;;;;;;184.68;175.27;;;;;;;;;;4998963;28;20053;-74
2021/12/08 11:20:34;;;;;;;100.03;94.65;;;;;;;;;;5005686;28;20034;-74
2021/12/08 11:23:01;;;;;;;72.72;68.93;;;;;;;;;;5008165;28;20359;-75
2021/12/08 11:25:37;;;;;;;67.03;63.40;;;;;;;;;;5000500;28;20029;-74
2021/12/08 11:28:22;;;;;;;79.30;74.90;;;;;;;;;;5007469;28;20454;-75
2021/12/08 11:30:49;;;;;;;159.88;149.57;;;;;;;;;;5011440;28;20049;-74
2021/12/08 11:33:18;;;;;;;67.50;64.05;;;;;;;;;;5009328;28;20419;-75
2021/12/08 11:35:45;;;;;;;215.18;202.20;;;;;;;;;;5011232;28;20398;-74
2021/12/08 11:38:11;;;;;;;76.65;72.97;;;;;;;;;;5022076;28;20219;-74
2021/12/08 11:40:37;;;;;;;95.57;89.97;;;;;;;;;;5010746;28;20040;-75
2021/12/08 11:43:04;;;;;;;132.70;125.47;;;;;;;;;;5003787;28;20269;-75
2021/12/08 11:45:42;;;;;;;195.55;183.40;;;;;;;;;;5002503;28;20018;-76
2021/12/08 11:48:24;;;;;;;68.03;64.43;;;;;;;;;;4997624;28;20030;-74
2021/12/08 11:51:06;;;;;;;269.20;248.77;;;;;;;;;;5007631;28;20033;-74
2021/12/08 11:53:32;;;;;;;;;;;;;;;;;;5009408;28;20037;-75
2021/12/08 11:55:58;;;;;;;;;;;;;;;;;;5008939;28;19983;-78
2021/12/08 11:58:24;;;;;;;816.03;664.13;;;;;;;;;;4994432;28;20526;-74
2021/12/08 12:00:52;;;;;;;496.23;446.50;;;;;;;;;;5008177;28;20116;-75
2021/12/08 12:03:19;;;;;;;752.42;525.58;;;;;;;;;;5022738;28;20046;-75
2021/12/08 12:05:46;;;;;;;732.80;450.40;;;;;;;;;;4999945;28;20032;-75
2021/12/08 12:08:15;;;;;;;727.83;434.85;;;;;;;;;;5006786;28;20053;-74
2021/12/08 12:10:43;;;;;;;747.17;476.52;;;;;;;;;;5001163;28;20523;-75
2021/12/08 12:13:10;;;;;;;752.35;466.15;;;;;;;;;;5003323;28;20571;-75
2021/12/08 12:15:36;;;;;;;;;;;;;;;;;;5005552;28;20117;-74
2021/12/08 12:18:03;;;;;;;752.10;513.45;;;;;;;;;;5004471;28;24088;-74
2021/12/08 12:20:38;;;;;;;763.75;536.20;;;;;;;;;;5007916;28;20057;-75
2021/12/08 12:23:23;;;;;;;773.60;539.40;;;;;;;;;;5000391;28;20033;-74
2021/12/08 12:25:55;;;;;;;754.97;524.57;;;;;;;;;;5003109;28;20407;-74
2021/12/08 12:28:30;;;;;;;746.35;470.35;;;;;;;;;;5003955;28;20432;-74
2021/12/08 12:31:08;;;;;;;731.23;481.93;;;;;;;;;;5002538;28;20056;-74
2021/12/08 12:33:42;;;;;;;734.53;450.13;;;;;;;;;;5003740;28;20061;-74
2021/12/08 12:36:17;;;;;;;748.92;496.92;;;;;;;;;;5010094;28;20451;-75
2021/12/08 12:38:43;;;;;;;751.50;491.45;;;;;;;;;;5005036;28;20036;-75
2021/12/08 12:41:09;;;;;;;;;;;;;;;;;;4998521;28;19913;-74
2021/12/08 12:43:38;;;;;;;;;;;;;;;;;;5020394;28;25158;-75
2021/12/08 12:46:11;;;;;;;728.20;458.80;;;;;;;;;;5008684;28;19920;-75
2021/12/08 12:48:37;;;;;;;753.58;522.83;;;;;;;;;;5001859;28;20041;-74
2021/12/08 12:51:16;;;;;;;761.85;514.40;;;;;;;;;;5010549;28;20144;-74
2021/12/08 12:53:53;;;;;;;757.60;515.55;;;;;;;;;;5013524;28;19909;-74
2021/12/08 12:56:39;;;;;;;755.40;535.37;;;;;;;;;;5008601;28;20033;-74
2021/12/08 12:59:14;;;;;;;733.35;429.42;;;;;;;;;;5005143;28;20092;-75
2021/12/08 13:01:45;;;;;;;763.10;557.20;;;;;;;;;;5010204;28;20064;-74
2021/12/08 13:04:20;;;;;;;764.20;582.60;;;;;;;;;;5024258;28;20032;-74
2021/12/08 13:06:48;;;;;;;741.72;455.90;;;;;;;;;;5012370;28;20399;-74
2021/12/08 13:09:29;;;;;;;738.83;447.83;;;;;;;;;;5009820;28;20045;-74
2021/12/08 13:12:06;;;;;;;750.25;523.20;;;;;;;;;;5012339;28;20122;-74
2021/12/08 13:14:32;;;;;;;749.47;519.20;;;;;;;;;;5012535;28;20045;-75
2021/12/08 13:17:07;;;;;;;744.83;500.52;;;;;;;;;;5027687;28;20000;-75
2021/12/08 13:19:41;;;;;;;738.60;465.05;;;;;;;;;;5007466;28;20057;-74
2021/12/08 13:22:07;;;;;;;733.08;425.20;;;;;;;;;;5005206;28;20034;-74
2021/12/08 13:24:43;;;;;;;674.85;425.88;;;;;;;;;;5008408;28;20030;-74
2021/12/08 13:27:12;;;;;;;656.50;425.80;;;;;;;;;;5010991;28;20030;-76
2021/12/08 13:29:40;;;;;;;634.88;407.30;;;;;;;;;;5008726;28;20050;-75
2021/12/08 13:32:13;;;;;;;653.67;415.98;;;;;;;;;;5006745;28;20026;-74
2021/12/08 13:34:59;;;;;;;667.90;413.27;;;;;;;;;;5007493;28;20403;-74
2021/12/08 13:37:29;;;;;;;703.88;411.48;;;;;;;;;;5007630;28;20537;-74
2021/12/08 13:40:04;;;;;;;624.88;395.25;;;;;;;;;;5006984;28;20034;-74
2021/12/08 13:42:33;;;;;;;687.13;406.45;;;;;;;;;;5008266;28;20029;-74
2021/12/08 13:45:01;;;;;;;683.40;386.40;;;;;;;;;;5025749;28;20104;-74
2021/12/08 13:47:34;;;;;;;713.15;411.92;;;;;;;;;;5008791;28;20092;-74
2021/12/08 13:50:03;;;;;;;722.63;406.48;;;;;;;;;;5007360;28;20014;-75
2021/12/08 13:52:30;;;;;;;716.95;400.55;;;;;;;;;;5003341;28;20515;-74
2021/12/08 13:54:58;;;;;;;728.50;430.75;;;;;;;;;;5010242;28;20030;-74
2021/12/08 13:57:35;;;;;;;741.35;470.15;;;;;;;;;;5000471;28;20038;-74
2021/12/08 14:00:01;;;;;;;711.33;418.90;;;;;;;;;;5007290;28;20092;-74
2021/12/08 14:02:54;;;;;;;687.78;413.65;;;;;;;;;;5009710;28;20037;-74
2021/12/08 14:05:20;;;;;;;692.00;494.73;;;;;;;;;;5005218;28;20068;-74
2021/12/08 14:07:54;;;;;;;752.20;497.63;;;;;;;;;;5006859;28;20076;-74
2021/12/08 14:10:23;;;;;;;765.65;542.20;;;;;;;;;;5006250;28;20479;-74
2021/12/08 14:12:54;;;;;;;733.65;451.70;;;;;;;;;;5020388;28;20450;-74
2021/12/08 14:15:20;;;;;;;;;;;;;;;;;;5010274;28;19917;-74
2021/12/08 14:17:48;;;;;;;;;;;;;;;;;;5007327;28;20596;-74
2021/12/08 14:20:14;;;;;;;;;;;;;;;;;;5006965;28;20324;-74
2021/12/08 14:22:40;;;;;;;750.50;520.60;;;;;;;;;;4999391;28;20057;-75
2021/12/08 14:25:07;;;;;;;736.20;447.20;;;;;;;;;;5007929;28;20029;-73
2021/12/08 14:27:33;;;;;;;736.53;462.02;;;;;;;;;;5005727;28;20416;-74
2021/12/08 14:29:59;;;;;;;737.10;468.75;;;;;;;;;;5000106;28;20033;-73
2021/12/08 14:32:25;;;;;;;728.60;454.05;;;;;;;;;;5005661;28;20053;-74
2021/12/08 14:34:52;;;;;;;;;;;;;;;;;;5004363;28;20379;-74
2021/12/08 14:37:18;;;;;;;;;;;;;;;;;;5021288;28;19917;-75
2021/12/08 14:39:46;;;;;;;;;;;;;;;;;;5003823;28;19964;-76
2021/12/08 14:42:12;;;;;;;;;;;;;;;;;;5005108;28;19921;-77
2021/12/08 14:44:38;;;;;;;;;;;;;;;;;;5016912;28;20390;-76
2021/12/08 14:47:04;;;;;;;;;;;;;;;;;;5022800;28;19925;-75
2021/12/08 14:49:31;;;;;;;;;;;;;;;;;;5023066;28;19948;-76
2021/12/08 14:51:57;;;;;;;;;;;;;;;;;;5008152;28;19975;-76
2021/12/08 14:54:23;;;;;;;;;;;;;;;;;;5020533;28;19945;-76
2021/12/08 14:56:49;;;;;;;;;;;;;;;;;;5009091;28;19992;-75
2021/12/08 14:59:15;;;;;;;;;;;;;;;;;;5004345;28;20055;-76
2021/12/08 15:01:41;;;;;;;;;;;;;;;;;;5010426;28;19995;-76
2021/12/08 15:04:07;;;;;;;;;;;;;;;;;;5005724;28;19955;-75